Time;durP1;ratioP1;P1;durP2;ratioP2;P2;SDS_P1;SDS_P2;PMS_P1;PMS_P2;Temp;Humidity;BMP_temperature;BMP_pressure;BME280_temperature;BME280_humidity;BME280_pressure;Samples;Min_cycle;Max_cycle;Signal;HPM_P1;HPM_P2
2023/03/31 00:00:52;;;;;;;18.58;3.97;;;;;;;;;;5002922;28;20098;-57
2023/03/31 00:03:22;;;;;;;9.80;2.53;;;;;;;;;;5004271;28;20046;-57
2023/03/31 00:05:57;;;;;;;16.00;2.70;;;;;;;;;;5004719;28;20089;-57
2023/03/31 00:08:28;;;;;;;12.35;4.22;;;;;;;;;;5004586;28;20061;-56
2023/03/31 00:10:57;;;;;;;18.88;2.70;;;;;;;;;;5003452;28;20771;-56
2023/03/31 00:13:24;;;;;;;10.80;2.80;;;;;;;;;;5004441;28;20058;-57
2023/03/31 00:15:55;;;;;;;13.90;3.60;;;;;;;;;;5005096;28;20523;-58
2023/03/31 00:18:21;;;;;;;8.07;2.60;;;;;;;;;;5002245;28;20253;-58
2023/03/31 00:20:48;;;;;;;10.48;3.17;;;;;;;;;;5004632;28;20134;-57
2023/03/31 00:23:14;;;;;;;13.77;2.97;;;;;;;;;;5001963;28;20050;-57
2023/03/31 00:25:40;;;;;;;19.63;4.72;;;;;;;;;;5004949;28;20507;-58
2023/03/31 00:28:07;;;;;;;11.40;2.90;;;;;;;;;;5003076;28;20050;-57
2023/03/31 00:30:33;;;;;;;19.48;4.05;;;;;;;;;;4998279;28;20492;-59
2023/03/31 00:33:00;;;;;;;12.77;3.00;;;;;;;;;;5003155;28;20348;-57
2023/03/31 00:35:26;;;;;;;10.98;2.90;;;;;;;;;;5003594;28;20050;-56
2023/03/31 00:37:56;;;;;;;10.85;2.58;;;;;;;;;;5002701;28;20058;-55
2023/03/31 00:40:22;;;;;;;9.23;2.22;;;;;;;;;;5003735;28;20062;-58
2023/03/31 00:42:49;;;;;;;10.75;2.53;;;;;;;;;;5009039;28;20057;-57
2023/03/31 00:45:15;;;;;;;11.68;2.78;;;;;;;;;;5024208;28;20061;-54
2023/03/31 00:47:51;;;;;;;12.18;2.60;;;;;;;;;;5022890;28;20089;-56
2023/03/31 00:50:24;;;;;;;12.45;2.83;;;;;;;;;;5024274;28;20331;-57
2023/03/31 00:53:09;;;;;;;12.70;2.88;;;;;;;;;;5023836;28;20543;-56
2023/03/31 00:55:39;;;;;;;10.65;2.40;;;;;;;;;;5021449;28;20056;-56
2023/03/31 00:58:05;;;;;;;7.85;2.05;;;;;;;;;;5023137;28;20054;-55
2023/03/31 01:00:32;;;;;;;10.13;2.35;;;;;;;;;;5023798;28;20472;-57
2023/03/31 01:03:01;;;;;;;13.27;2.70;;;;;;;;;;5025360;28;20436;-57
2023/03/31 01:05:27;;;;;;;12.43;2.75;;;;;;;;;;5024211;28;20050;-55
2023/03/31 01:07:54;;;;;;;13.13;3.22;;;;;;;;;;5021697;28;20084;-57
2023/03/31 01:10:21;;;;;;;7.53;2.30;;;;;;;;;;5024352;28;20510;-57
2023/03/31 01:12:50;;;;;;;15.50;3.13;;;;;;;;;;5023364;28;20500;-56
2023/03/31 01:15:17;;;;;;;7.25;2.58;;;;;;;;;;5023137;28;20046;-56
2023/03/31 01:17:43;;;;;;;10.75;2.60;;;;;;;;;;5021540;28;20057;-56
2023/03/31 01:20:22;;;;;;;9.82;2.85;;;;;;;;;;5023288;28;20517;-56
2023/03/31 01:22:53;;;;;;;7.32;2.55;;;;;;;;;;5024183;28;20255;-50
2023/03/31 01:25:32;;;;;;;10.50;2.58;;;;;;;;;;5021177;28;20050;-53
2023/03/31 01:27:59;;;;;;;9.98;2.88;;;;;;;;;;5013262;28;20061;-53
2023/03/31 01:30:44;;;;;;;11.95;2.65;;;;;;;;;;5024021;28;20539;-52
2023/03/31 01:33:13;;;;;;;18.17;2.87;;;;;;;;;;5019540;28;20058;-55
2023/03/31 01:35:58;;;;;;;9.85;2.63;;;;;;;;;;5023463;28;20050;-54
2023/03/31 01:38:42;;;;;;;5.63;2.35;;;;;;;;;;5023257;28;20050;-55
2023/03/31 01:41:21;;;;;;;10.63;2.35;;;;;;;;;;5024358;28;20124;-57
2023/03/31 01:43:59;;;;;;;11.30;2.28;;;;;;;;;;5025641;28;20050;-56
2023/03/31 01:46:45;;;;;;;12.40;2.53;;;;;;;;;;5025313;28;20050;-56
2023/03/31 01:49:11;;;;;;;12.43;2.90;;;;;;;;;;5023671;28;20046;-56
2023/03/31 01:51:40;;;;;;;8.60;2.30;;;;;;;;;;5026574;28;20137;-55
2023/03/31 01:54:07;;;;;;;11.75;3.22;;;;;;;;;;5024724;28;20602;-56
2023/03/31 01:56:36;;;;;;;8.02;2.85;;;;;;;;;;5024275;28;20061;-57
2023/03/31 01:59:09;;;;;;;8.80;2.58;;;;;;;;;;5025440;28;20050;-56
2023/03/31 02:01:39;;;;;;;8.05;2.30;;;;;;;;;;5027230;28;20064;-57
2023/03/31 02:04:17;;;;;;;8.60;2.90;;;;;;;;;;5026943;28;20050;-57
2023/03/31 02:06:46;;;;;;;9.15;3.33;;;;;;;;;;5025059;28;20507;-55
2023/03/31 02:09:15;;;;;;;9.18;2.95;;;;;;;;;;5026503;28;20426;-55
2023/03/31 02:11:42;;;;;;;9.68;3.42;;;;;;;;;;5009210;28;20492;-56
2023/03/31 02:14:11;;;;;;;11.05;2.75;;;;;;;;;;5026932;28;20542;-54
2023/03/31 02:16:40;;;;;;;10.48;3.25;;;;;;;;;;5026201;28;20078;-56
2023/03/31 02:19:08;;;;;;;10.25;3.08;;;;;;;;;;5025084;28;20149;-56
2023/03/31 02:21:36;;;;;;;7.40;2.30;;;;;;;;;;5025191;28;20503;-57
2023/03/31 02:24:04;;;;;;;8.52;2.80;;;;;;;;;;5008836;28;20504;-57
2023/03/31 02:26:34;;;;;;;13.10;3.55;;;;;;;;;;5026689;28;20060;-55
2023/03/31 02:29:01;;;;;;;14.30;3.60;;;;;;;;;;5025150;28;20085;-55
2023/03/31 02:31:27;;;;;;;13.25;3.42;;;;;;;;;;5025017;28;20192;-56
2023/03/31 02:33:54;;;;;;;8.25;3.08;;;;;;;;;;5026236;28;20058;-56
2023/03/31 02:36:21;;;;;;;11.20;4.47;;;;;;;;;;5025891;28;20490;-54
2023/03/31 02:38:50;;;;;;;15.73;4.22;;;;;;;;;;5025759;28;20061;-56
2023/03/31 02:41:17;;;;;;;13.80;4.43;;;;;;;;;;5025168;28;20065;-54
2023/03/31 02:43:43;;;;;;;10.38;3.55;;;;;;;;;;5007934;28;20054;-55
2023/03/31 02:46:10;;;;;;;9.05;3.47;;;;;;;;;;5025267;28;20104;-56
2023/03/31 02:48:40;;;;;;;11.93;3.58;;;;;;;;;;5024936;28;20046;-54
2023/03/31 02:51:07;;;;;;;13.77;3.55;;;;;;;;;;5024776;28;20102;-56
2023/03/31 02:53:55;;;;;;;19.63;3.92;;;;;;;;;;5025934;28;20054;-56
2023/03/31 02:56:33;;;;;;;9.70;3.10;;;;;;;;;;5025841;28;20058;-52
2023/03/31 02:59:02;;;;;;;11.13;3.63;;;;;;;;;;5025017;28;20161;-55
2023/03/31 03:01:41;;;;;;;10.30;3.42;;;;;;;;;;5024975;28;20053;-55
2023/03/31 03:04:15;;;;;;;11.55;3.35;;;;;;;;;;5007560;28;20108;-53
2023/03/31 03:06:52;;;;;;;13.48;4.03;;;;;;;;;;5026351;28;20124;-52
2023/03/31 03:09:34;;;;;;;13.55;4.68;;;;;;;;;;5024130;28;20616;-54
2023/03/31 03:12:07;;;;;;;14.55;3.55;;;;;;;;;;5011639;28;20053;-52
2023/03/31 03:14:36;;;;;;;11.57;3.28;;;;;;;;;;5025861;28;20136;-52
2023/03/31 03:17:23;;;;;;;13.93;3.47;;;;;;;;;;5025095;28;20053;-55
2023/03/31 03:19:52;;;;;;;13.38;3.25;;;;;;;;;;5006346;28;20169;-52
2023/03/31 03:22:18;;;;;;;13.27;3.30;;;;;;;;;;5025369;28;20056;-52
2023/03/31 03:24:45;;;;;;;13.43;3.03;;;;;;;;;;5025100;28;20585;-53
2023/03/31 03:27:11;;;;;;;11.25;3.30;;;;;;;;;;5024529;28;20060;-53
2023/03/31 03:29:37;;;;;;;10.30;3.30;;;;;;;;;;5023442;28;20049;-54
2023/03/31 03:32:04;;;;;;;15.02;3.10;;;;;;;;;;5025367;28;20077;-54
2023/03/31 03:34:30;;;;;;;6.28;2.60;;;;;;;;;;5025309;28;20137;-54
2023/03/31 03:36:57;;;;;;;9.13;2.33;;;;;;;;;;5025954;28;20053;-53
2023/03/31 03:39:23;;;;;;;4.97;2.15;;;;;;;;;;5024920;28;20509;-53
2023/03/31 03:41:50;;;;;;;10.52;3.58;;;;;;;;;;5026074;28;20058;-53
2023/03/31 03:44:16;;;;;;;13.82;2.65;;;;;;;;;;5024054;28;20069;-53
2023/03/31 03:46:42;;;;;;;13.60;3.90;;;;;;;;;;5025802;28;20046;-55
2023/03/31 03:49:09;;;;;;;7.47;3.42;;;;;;;;;;5025495;28;20516;-54
2023/03/31 03:51:35;;;;;;;10.02;2.60;;;;;;;;;;5023252;28;20129;-55
2023/03/31 03:54:01;;;;;;;5.10;2.50;;;;;;;;;;5025507;28;20137;-56
2023/03/31 03:56:28;;;;;;;14.73;3.28;;;;;;;;;;5007687;28;20551;-54
2023/03/31 03:58:55;;;;;;;8.43;2.53;;;;;;;;;;5025370;28;20129;-54
2023/03/31 04:01:21;;;;;;;13.82;3.35;;;;;;;;;;5022236;28;20050;-55
2023/03/31 04:03:48;;;;;;;7.88;2.58;;;;;;;;;;5024402;28;20535;-55
2023/03/31 04:06:14;;;;;;;11.75;2.65;;;;;;;;;;5023905;28;20049;-52
2023/03/31 04:08:40;;;;;;;10.77;2.75;;;;;;;;;;5025557;28;20125;-53
2023/03/31 04:11:16;;;;;;;11.70;2.60;;;;;;;;;;5022207;28;20533;-56
2023/03/31 04:13:45;;;;;;;15.73;2.08;;;;;;;;;;5024310;28;20116;-54
2023/03/31 04:16:11;;;;;;;6.18;1.83;;;;;;;;;;5022917;28;20045;-55
2023/03/31 04:18:41;;;;;;;8.52;2.15;;;;;;;;;;5024161;28;20081;-53
2023/03/31 04:21:11;;;;;;;8.43;2.17;;;;;;;;;;5023562;28;20057;-54
2023/03/31 04:23:41;;;;;;;9.93;2.10;;;;;;;;;;5025190;28;20464;-54
2023/03/31 04:26:08;;;;;;;8.32;2.00;;;;;;;;;;5022866;28;21273;-50
2023/03/31 04:28:35;;;;;;;7.95;2.05;;;;;;;;;;5024802;28;20053;-51
2023/03/31 04:31:02;;;;;;;7.53;1.85;;;;;;;;;;5023707;28;20129;-53
2023/03/31 04:33:29;;;;;;;5.53;1.48;;;;;;;;;;5007024;28;20169;-53
2023/03/31 04:35:55;;;;;;;6.72;1.30;;;;;;;;;;5023431;28;20140;-54
2023/03/31 04:38:22;;;;;;;4.43;1.48;;;;;;;;;;5025032;28;20061;-54
2023/03/31 04:40:50;;;;;;;5.20;1.50;;;;;;;;;;5024679;28;20233;-54
2023/03/31 04:43:17;;;;;;;8.27;1.83;;;;;;;;;;5023654;28;20066;-55
2023/03/31 04:45:43;;;;;;;5.22;1.48;;;;;;;;;;5022340;28;20120;-52
2023/03/31 04:48:10;;;;;;;4.13;1.65;;;;;;;;;;5020038;28;20058;-53
2023/03/31 04:50:36;;;;;;;2.92;1.38;;;;;;;;;;5022611;28;20052;-55
2023/03/31 04:53:03;;;;;;;8.13;2.55;;;;;;;;;;5020669;28;20056;-53
2023/03/31 04:55:30;;;;;;;8.77;2.00;;;;;;;;;;5019022;28;20634;-54
2023/03/31 04:57:56;;;;;;;9.60;2.33;;;;;;;;;;5013469;28;20609;-54
2023/03/31 05:00:23;;;;;;;7.03;2.35;;;;;;;;;;5019923;28;20507;-50
2023/03/31 05:02:50;;;;;;;6.97;2.03;;;;;;;;;;5018969;28;20116;-54
2023/03/31 05:05:16;;;;;;;7.15;2.33;;;;;;;;;;5024627;28;20089;-52
2023/03/31 05:07:43;;;;;;;10.18;2.83;;;;;;;;;;5023976;28;20125;-54
2023/03/31 05:10:09;;;;;;;13.45;3.15;;;;;;;;;;5023942;28;20468;-53
2023/03/31 05:12:36;;;;;;;8.30;3.17;;;;;;;;;;5023217;28;20487;-54
2023/03/31 05:15:03;;;;;;;14.30;3.38;;;;;;;;;;5022648;28;20805;-51
2023/03/31 05:17:31;;;;;;;8.60;3.22;;;;;;;;;;5027037;28;20050;-51
2023/03/31 05:19:58;;;;;;;9.60;3.17;;;;;;;;;;5021640;28;20068;-53
2023/03/31 05:22:25;;;;;;;13.90;3.17;;;;;;;;;;5026986;28;20061;-55
2023/03/31 05:24:51;;;;;;;6.97;3.55;;;;;;;;;;5036977;28;20141;-49
2023/03/31 05:27:20;;;;;;;8.43;2.80;;;;;;;;;;5026377;28;20089;-50
2023/03/31 05:29:47;;;;;;;13.45;3.45;;;;;;;;;;5025342;28;20056;-51
2023/03/31 05:32:13;;;;;;;8.75;3.00;;;;;;;;;;5026559;28;20057;-54
2023/03/31 05:34:42;;;;;;;10.63;2.55;;;;;;;;;;5027325;28;20054;-54
2023/03/31 05:37:08;;;;;;;8.45;2.67;;;;;;;;;;5024072;28;20046;-52
2023/03/31 05:39:34;;;;;;;9.45;3.20;;;;;;;;;;5024454;28;20089;-51
2023/03/31 05:42:02;;;;;;;8.80;2.45;;;;;;;;;;5024231;28;20085;-50
2023/03/31 05:44:28;;;;;;;10.35;2.95;;;;;;;;;;5027075;28;20064;-54
2023/03/31 05:46:55;;;;;;;8.15;2.88;;;;;;;;;;5027463;28;20136;-55
2023/03/31 05:49:21;;;;;;;10.02;2.85;;;;;;;;;;5023135;28;20046;-52
2023/03/31 05:51:47;;;;;;;11.55;2.70;;;;;;;;;;5021597;28;20521;-54
2023/03/31 05:54:14;;;;;;;9.00;2.15;;;;;;;;;;5009341;28;20053;-54
2023/03/31 05:56:40;;;;;;;11.48;2.75;;;;;;;;;;5018416;28;20492;-49
2023/03/31 05:59:07;;;;;;;7.93;2.35;;;;;;;;;;5015509;28;20499;-52
2023/03/31 06:01:33;;;;;;;7.47;2.28;;;;;;;;;;5020868;28;20324;-53
2023/03/31 06:04:00;;;;;;;10.18;3.42;;;;;;;;;;5020282;28;20545;-54
2023/03/31 06:06:26;;;;;;;9.65;2.22;;;;;;;;;;5021549;28;20053;-54
2023/03/31 06:08:53;;;;;;;7.13;1.92;;;;;;;;;;5017737;28;20556;-54
2023/03/31 06:11:21;;;;;;;9.35;2.97;;;;;;;;;;5022911;28;20046;-52
2023/03/31 06:13:48;;;;;;;10.02;2.20;;;;;;;;;;5020530;28;20512;-55
2023/03/31 06:16:15;;;;;;;10.60;3.17;;;;;;;;;;5015666;28;20771;-54
2023/03/31 06:18:42;;;;;;;5.68;1.88;;;;;;;;;;5022527;28;20072;-55
2023/03/31 06:21:12;;;;;;;5.80;2.47;;;;;;;;;;5018672;28;20054;-55
2023/03/31 06:23:39;;;;;;;7.05;2.65;;;;;;;;;;5021159;28;20515;-55
2023/03/31 06:26:07;;;;;;;6.80;2.65;;;;;;;;;;5018643;28;20432;-55
2023/03/31 06:28:34;;;;;;;9.10;2.25;;;;;;;;;;5020270;28;20050;-54
2023/03/31 06:31:05;;;;;;;6.97;1.83;;;;;;;;;;5017217;28;20049;-55
2023/03/31 06:33:32;;;;;;;5.53;1.65;;;;;;;;;;5022714;28;20060;-56
2023/03/31 06:36:00;;;;;;;6.30;1.65;;;;;;;;;;5021512;28;20097;-56
2023/03/31 06:38:27;;;;;;;5.40;1.90;;;;;;;;;;5019765;28;20054;-56
2023/03/31 06:40:53;;;;;;;5.53;2.10;;;;;;;;;;5020296;28;20062;-55
2023/03/31 06:43:20;;;;;;;6.25;2.03;;;;;;;;;;5022694;28;20313;-52
2023/03/31 06:45:46;;;;;;;4.97;1.90;;;;;;;;;;5022953;28;20045;-53
2023/03/31 06:48:13;;;;;;;4.88;1.75;;;;;;;;;;5015519;28;20064;-53
2023/03/31 06:50:40;;;;;;;6.38;1.73;;;;;;;;;;5018831;28;20684;-54
2023/03/31 06:53:07;;;;;;;8.63;1.90;;;;;;;;;;5024788;28;20085;-55
2023/03/31 06:55:34;;;;;;;3.97;1.33;;;;;;;;;;5015448;28;20050;-56
2023/03/31 06:58:00;;;;;;;4.45;1.50;;;;;;;;;;5021457;28;20551;-55
2023/03/31 07:00:27;;;;;;;6.50;1.75;;;;;;;;;;5021567;28;20140;-54
2023/03/31 07:02:53;;;;;;;4.57;1.60;;;;;;;;;;5021330;28;20058;-54
2023/03/31 07:05:25;;;;;;;3.78;1.13;;;;;;;;;;5018416;28;20591;-55
2023/03/31 07:07:52;;;;;;;6.32;1.80;;;;;;;;;;5018202;28;20053;-55
2023/03/31 07:10:18;;;;;;;4.03;1.48;;;;;;;;;;5022121;28;20054;-51
2023/03/31 07:12:45;;;;;;;2.55;1.00;;;;;;;;;;5020437;28;20061;-51
2023/03/31 07:15:11;;;;;;;5.05;1.63;;;;;;;;;;5015718;28;20061;-54
2023/03/31 07:17:40;;;;;;;5.50;1.27;;;;;;;;;;5014429;28;20487;-51
2023/03/31 07:20:12;;;;;;;3.47;1.10;;;;;;;;;;5014467;28;20089;-54
2023/03/31 07:22:40;;;;;;;3.80;1.10;;;;;;;;;;5011365;28;20050;-53
2023/03/31 07:25:10;;;;;;;5.00;1.58;;;;;;;;;;5019695;28;20057;-55
2023/03/31 07:27:37;;;;;;;8.77;1.60;;;;;;;;;;5015130;28;20823;-55
2023/03/31 07:30:05;;;;;;;4.18;1.30;;;;;;;;;;5020925;28;20056;-55
2023/03/31 07:32:32;;;;;;;4.63;1.20;;;;;;;;;;5021267;28;20048;-54
2023/03/31 07:34:58;;;;;;;5.05;1.10;;;;;;;;;;5021003;28;20128;-55
2023/03/31 07:37:25;;;;;;;6.28;1.40;;;;;;;;;;5022067;28;20050;-54
2023/03/31 07:39:51;;;;;;;5.70;1.30;;;;;;;;;;5019806;28;20042;-55
2023/03/31 07:42:17;;;;;;;5.85;1.30;;;;;;;;;;5019540;28;20503;-55
2023/03/31 07:44:44;;;;;;;5.30;1.35;;;;;;;;;;5016494;28;20527;-51
2023/03/31 07:47:10;;;;;;;3.55;1.60;;;;;;;;;;5018399;28;20049;-53
2023/03/31 07:49:36;;;;;;;2.97;1.35;;;;;;;;;;5022210;28;20069;-53
2023/03/31 07:52:03;;;;;;;5.22;1.70;;;;;;;;;;5021179;28;20057;-55
2023/03/31 07:54:29;;;;;;;5.78;1.55;;;;;;;;;;5016481;28;20058;-55
2023/03/31 07:56:56;;;;;;;4.32;1.50;;;;;;;;;;5013091;28;20074;-52
2023/03/31 07:59:22;;;;;;;6.32;2.58;;;;;;;;;;5021503;28;20061;-53
2023/03/31 08:01:49;;;;;;;4.63;1.80;;;;;;;;;;5022109;28;20129;-51
2023/03/31 08:04:15;;;;;;;5.78;1.70;;;;;;;;;;5020345;28;20050;-55
2023/03/31 08:06:41;;;;;;;4.70;1.58;;;;;;;;;;5023558;28;20053;-54
2023/03/31 08:09:08;;;;;;;6.38;2.15;;;;;;;;;;5025634;28;20149;-54
2023/03/31 08:11:35;;;;;;;5.28;1.50;;;;;;;;;;5021897;28;20120;-54
2023/03/31 08:14:02;;;;;;;4.13;1.55;;;;;;;;;;5025063;28;20806;-54
2023/03/31 08:16:28;;;;;;;4.43;1.50;;;;;;;;;;5019419;28;20057;-54
2023/03/31 08:18:54;;;;;;;5.97;1.83;;;;;;;;;;5003547;28;20053;-54
2023/03/31 08:21:21;;;;;;;4.47;1.98;;;;;;;;;;5020577;28;20448;-50
2023/03/31 08:23:52;;;;;;;5.78;1.77;;;;;;;;;;5002076;28;20061;-56
2023/03/31 08:26:18;;;;;;;9.32;2.47;;;;;;;;;;5016648;28;20057;-53
2023/03/31 08:28:45;;;;;;;5.85;2.03;;;;;;;;;;5020822;28;20504;-53
2023/03/31 08:31:15;;;;;;;5.45;2.17;;;;;;;;;;5018524;28;20089;-54
2023/03/31 08:33:41;;;;;;;4.88;1.45;;;;;;;;;;5024005;28;20148;-55
2023/03/31 08:36:09;;;;;;;6.25;1.70;;;;;;;;;;5010115;28;20064;-54
2023/03/31 08:38:37;;;;;;;4.72;1.70;;;;;;;;;;5020876;28;20054;-55
2023/03/31 08:41:06;;;;;;;8.00;2.72;;;;;;;;;;5018126;28;20551;-54
2023/03/31 08:43:35;;;;;;;4.80;1.90;;;;;;;;;;5001788;28;20049;-54
2023/03/31 08:46:03;;;;;;;7.45;2.47;;;;;;;;;;5020883;28;20054;-55
2023/03/31 08:48:33;;;;;;;7.88;2.30;;;;;;;;;;5023055;28;20572;-54
2023/03/31 08:51:04;;;;;;;12.27;3.28;;;;;;;;;;5019305;28;20052;-55
2023/03/31 08:53:47;;;;;;;5.38;1.85;;;;;;;;;;5019271;28;20077;-51
2023/03/31 08:56:18;;;;;;;11.00;2.65;;;;;;;;;;5020450;28;21040;-54
2023/03/31 08:58:46;;;;;;;7.90;2.30;;;;;;;;;;5019198;28;20567;-53
2023/03/31 09:01:31;;;;;;;5.68;2.10;;;;;;;;;;5019870;28;20672;-54
2023/03/31 09:04:24;;;;;;;7.47;2.35;;;;;;;;;;5015199;28;20593;-51
2023/03/31 09:07:07;;;;;;;16.63;2.72;;;;;;;;;;5019896;28;20057;-53
2023/03/31 09:09:40;;;;;;;15.20;2.85;;;;;;;;;;5024215;28;20512;-53
2023/03/31 09:12:10;;;;;;;10.20;2.63;;;;;;;;;;5018155;28;20050;-52
2023/03/31 09:14:38;;;;;;;9.50;3.33;;;;;;;;;;5020506;28;20082;-51
2023/03/31 09:17:11;;;;;;;12.32;3.67;;;;;;;;;;5017852;28;20053;-57
2023/03/31 09:19:42;;;;;;;9.02;2.97;;;;;;;;;;5015118;28;20500;-54
2023/03/31 09:22:12;;;;;;;21.52;4.28;;;;;;;;;;5023347;28;20085;-54
2023/03/31 09:24:45;;;;;;;15.07;3.22;;;;;;;;;;5012017;28;20051;-54
2023/03/31 09:27:11;;;;;;;19.15;4.68;;;;;;;;;;5009466;28;20097;-53
2023/03/31 09:29:42;;;;;;;18.77;3.65;;;;;;;;;;4997814;28;20054;-54
2023/03/31 09:32:30;;;;;;;20.13;4.18;;;;;;;;;;5019491;28;20085;-51
2023/03/31 09:34:59;;;;;;;18.90;4.22;;;;;;;;;;5018098;28;20061;-53
2023/03/31 09:37:28;;;;;;;17.25;4.57;;;;;;;;;;5018239;28;20082;-55
2023/03/31 09:39:57;;;;;;;18.15;3.78;;;;;;;;;;5016432;28;20053;-52
2023/03/31 09:42:23;;;;;;;8.38;3.03;;;;;;;;;;5019133;28;20081;-54
2023/03/31 09:44:50;;;;;;;17.63;4.80;;;;;;;;;;5019937;28;20050;-53
2023/03/31 09:47:20;;;;;;;11.50;3.05;;;;;;;;;;5022734;28;20054;-54
2023/03/31 09:49:47;;;;;;;13.68;3.50;;;;;;;;;;5008152;28;20062;-52
2023/03/31 09:52:25;;;;;;;18.23;3.78;;;;;;;;;;5008749;28;20108;-54
2023/03/31 09:54:53;;;;;;;9.50;2.78;;;;;;;;;;5019606;28;20054;-55
2023/03/31 09:57:33;;;;;;;11.05;4.20;;;;;;;;;;5019231;28;20561;-55
2023/03/31 10:00:15;;;;;;;13.05;3.15;;;;;;;;;;5017253;28;20571;-53
2023/03/31 10:02:44;;;;;;;11.52;3.25;;;;;;;;;;5017459;28;20480;-55
2023/03/31 10:05:24;;;;;;;18.95;4.40;;;;;;;;;;5022233;28;20135;-55
2023/03/31 10:07:51;;;;;;;14.63;2.80;;;;;;;;;;5003231;28;20581;-52
2023/03/31 10:10:27;;;;;;;14.00;2.95;;;;;;;;;;5004470;28;20524;-54
2023/03/31 10:12:54;;;;;;;10.77;3.22;;;;;;;;;;5021765;28;20475;-54
2023/03/31 10:15:24;;;;;;;13.55;3.58;;;;;;;;;;5020898;28;20050;-54
2023/03/31 10:17:51;;;;;;;12.43;3.63;;;;;;;;;;5022041;28;20663;-53
2023/03/31 10:20:36;;;;;;;10.32;2.67;;;;;;;;;;5021751;28;20136;-55
2023/03/31 10:23:05;;;;;;;15.80;3.65;;;;;;;;;;5018475;28;20115;-55
2023/03/31 10:25:32;;;;;;;11.50;3.55;;;;;;;;;;5036472;28;20054;-55
2023/03/31 10:28:00;;;;;;;14.23;3.55;;;;;;;;;;5023489;28;20057;-55
2023/03/31 10:30:32;;;;;;;12.80;3.20;;;;;;;;;;5023758;28;20057;-56
2023/03/31 10:32:59;;;;;;;13.48;2.88;;;;;;;;;;5020766;28;20052;-55
2023/03/31 10:35:40;;;;;;;8.70;2.38;;;;;;;;;;5012818;28;20073;-54
2023/03/31 10:38:10;;;;;;;17.85;3.75;;;;;;;;;;5021349;28;20046;-53
2023/03/31 10:40:38;;;;;;;13.90;2.95;;;;;;;;;;5023688;28;20137;-55
2023/03/31 10:43:15;;;;;;;14.50;2.92;;;;;;;;;;5022045;28;20045;-54
2023/03/31 10:45:46;;;;;;;13.95;2.40;;;;;;;;;;5022103;28;20651;-53
2023/03/31 10:48:17;;;;;;;12.82;3.38;;;;;;;;;;5021904;28;20050;-56
2023/03/31 10:50:43;;;;;;;9.88;2.55;;;;;;;;;;5019741;28;20473;-55
2023/03/31 10:53:12;;;;;;;13.10;2.65;;;;;;;;;;5020445;28;20432;-54
2023/03/31 10:55:45;;;;;;;8.57;2.13;;;;;;;;;;5022485;28;20527;-55
2023/03/31 10:58:17;;;;;;;13.85;3.63;;;;;;;;;;5021872;28;20057;-56
2023/03/31 11:00:46;;;;;;;13.57;2.90;;;;;;;;;;5022202;28;20056;-50
2023/03/31 11:03:13;;;;;;;10.07;2.30;;;;;;;;;;5021211;28;20503;-51
2023/03/31 11:05:42;;;;;;;7.90;2.05;;;;;;;;;;5009583;28;20050;-52
2023/03/31 11:08:14;;;;;;;13.55;2.78;;;;;;;;;;5019470;28;20088;-52
2023/03/31 11:11:02;;;;;;;9.13;2.17;;;;;;;;;;5012705;28;20532;-53
2023/03/31 11:13:35;;;;;;;13.82;2.60;;;;;;;;;;5017075;28;20046;-55
2023/03/31 11:16:22;;;;;;;11.25;3.25;;;;;;;;;;5019320;28;20520;-53
2023/03/31 11:19:04;;;;;;;14.68;2.92;;;;;;;;;;5003427;28;20064;-52
2023/03/31 11:21:50;;;;;;;7.82;2.30;;;;;;;;;;5019977;28;20555;-53
2023/03/31 11:24:49;;;;;;;13.90;2.65;;;;;;;;;;5021411;28;20055;-52
2023/03/31 11:27:26;;;;;;;10.10;2.65;;;;;;;;;;4937468;28;20055;-54
2023/03/31 11:30:03;;;;;;;13.85;2.75;;;;;;;;;;4940775;28;20060;-53
2023/03/31 11:32:32;;;;;;;11.88;2.35;;;;;;;;;;4938875;28;20293;-53
2023/03/31 11:34:58;;;;;;;8.77;2.20;;;;;;;;;;4940524;28;20151;-51
2023/03/31 11:37:31;;;;;;;8.00;2.20;;;;;;;;;;4941016;28;20052;-53
2023/03/31 11:40:16;;;;;;;13.05;2.92;;;;;;;;;;4936845;28;20178;-54
2023/03/31 11:42:43;;;;;;;10.45;2.58;;;;;;;;;;4929768;28;20040;-52
2023/03/31 11:45:21;;;;;;;12.88;3.38;;;;;;;;;;4937230;28;20110;-51
2023/03/31 11:47:49;;;;;;;11.98;3.00;;;;;;;;;;4928749;28;20142;-53
2023/03/31 11:50:21;;;;;;;7.88;2.67;;;;;;;;;;4940078;28;20513;-55
2023/03/31 11:52:53;;;;;;;11.25;2.35;;;;;;;;;;4940201;28;20581;-55
2023/03/31 11:55:22;;;;;;;11.52;2.80;;;;;;;;;;4943701;28;20160;-53
2023/03/31 11:58:00;;;;;;;8.02;2.50;;;;;;;;;;4938965;28;20459;-51
2023/03/31 12:00:32;;;;;;;11.95;3.00;;;;;;;;;;4939599;28;20170;-49
2023/03/31 12:03:17;;;;;;;10.43;2.40;;;;;;;;;;4976059;28;20050;-54
2023/03/31 12:05:46;;;;;;;11.68;2.38;;;;;;;;;;5020798;28;20479;-54
2023/03/31 12:08:29;;;;;;;12.90;2.22;;;;;;;;;;5021266;28;20069;-52
2023/03/31 12:11:16;;;;;;;13.63;3.05;;;;;;;;;;5025432;28;20073;-54
2023/03/31 12:13:42;;;;;;;8.85;2.00;;;;;;;;;;4992584;28;20058;-51
2023/03/31 12:16:16;;;;;;;17.15;2.78;;;;;;;;;;5020652;28;20097;-51
2023/03/31 12:18:54;;;;;;;7.10;2.10;;;;;;;;;;5015903;28;20096;-53
2023/03/31 12:21:21;;;;;;;11.02;2.45;;;;;;;;;;5017196;28;20060;-52
2023/03/31 12:23:48;;;;;;;11.18;2.17;;;;;;;;;;5019559;28;20108;-49
2023/03/31 12:26:15;;;;;;;14.05;2.25;;;;;;;;;;5021601;28;20089;-53
2023/03/31 12:28:43;;;;;;;9.45;2.10;;;;;;;;;;5017784;28;20144;-50
2023/03/31 12:31:14;;;;;;;13.98;3.60;;;;;;;;;;5021739;28;20111;-54
2023/03/31 12:33:42;;;;;;;15.00;3.45;;;;;;;;;;5021214;28;20781;-53
2023/03/31 12:36:09;;;;;;;8.90;2.25;;;;;;;;;;5016219;28;20054;-53
2023/03/31 12:38:45;;;;;;;14.93;3.13;;;;;;;;;;5019869;28;20062;-49
2023/03/31 12:41:30;;;;;;;16.25;2.67;;;;;;;;;;5021175;28;20078;-48
2023/03/31 12:43:57;;;;;;;7.40;2.33;;;;;;;;;;5018783;28;20185;-54
2023/03/31 12:46:23;;;;;;;7.30;2.15;;;;;;;;;;5019830;28;20053;-50
2023/03/31 12:49:04;;;;;;;10.02;2.67;;;;;;;;;;5028201;28;20057;-51
2023/03/31 12:51:36;;;;;;;13.68;2.67;;;;;;;;;;5033955;28;20070;-49
2023/03/31 12:54:03;;;;;;;11.68;3.72;;;;;;;;;;5020342;28;20058;-52
2023/03/31 12:56:49;;;;;;;13.30;2.53;;;;;;;;;;5020757;28;20064;-52
2023/03/31 12:59:17;;;;;;;9.68;2.33;;;;;;;;;;5023138;28;20053;-49
2023/03/31 13:02:02;;;;;;;9.73;2.67;;;;;;;;;;5027604;28;20054;-50
2023/03/31 13:04:29;;;;;;;8.73;2.38;;;;;;;;;;5007701;28;20053;-51
2023/03/31 13:06:58;;;;;;;13.20;3.95;;;;;;;;;;5019062;28;20054;-51
2023/03/31 13:09:57;;;;;;;9.95;2.30;;;;;;;;;;5014169;28;20060;-52
2023/03/31 13:12:26;;;;;;;8.00;2.03;;;;;;;;;;4956954;28;20117;-52
2023/03/31 13:14:57;;;;;;;6.85;2.78;;;;;;;;;;5013912;28;20050;-49
2023/03/31 13:17:27;;;;;;;9.13;3.15;;;;;;;;;;5019145;28;20153;-52
2023/03/31 13:19:54;;;;;;;9.35;3.00;;;;;;;;;;5020539;28;20085;-52
2023/03/31 13:22:33;;;;;;;11.05;2.78;;;;;;;;;;5021095;28;20165;-52
2023/03/31 13:25:18;;;;;;;12.80;3.28;;;;;;;;;;5018578;28;20046;-55
2023/03/31 13:27:48;;;;;;;12.25;2.83;;;;;;;;;;5018000;28;20093;-53
2023/03/31 13:30:38;;;;;;;10.57;2.45;;;;;;;;;;5019889;28;20058;-54
2023/03/31 13:33:09;;;;;;;14.60;3.13;;;;;;;;;;5007960;28;20587;-49
2023/03/31 13:35:38;;;;;;;9.65;2.45;;;;;;;;;;5020200;28;20061;-53
2023/03/31 13:38:11;;;;;;;10.23;2.70;;;;;;;;;;5019081;28;20058;-50
2023/03/31 13:40:38;;;;;;;11.02;2.20;;;;;;;;;;5023264;28;20058;-52
2023/03/31 13:43:22;;;;;;;9.45;2.42;;;;;;;;;;5019453;28;20532;-52
2023/03/31 13:46:08;;;;;;;13.73;3.05;;;;;;;;;;5018636;28;20607;-54
2023/03/31 13:48:39;;;;;;;6.82;2.20;;;;;;;;;;5021907;28;20050;-53
2023/03/31 13:51:11;;;;;;;9.68;2.20;;;;;;;;;;5025188;28;20065;-53
2023/03/31 13:53:53;;;;;;;8.50;2.72;;;;;;;;;;5022951;28;20412;-54
2023/03/31 13:56:38;;;;;;;10.93;2.50;;;;;;;;;;5021580;28;20092;-50
2023/03/31 13:59:11;;;;;;;14.05;3.45;;;;;;;;;;5023543;28;20058;-53
2023/03/31 14:01:59;;;;;;;11.32;2.83;;;;;;;;;;5022989;28;20054;-51
2023/03/31 14:04:37;;;;;;;12.88;2.53;;;;;;;;;;5011159;28;20065;-51
2023/03/31 14:07:08;;;;;;;9.43;2.67;;;;;;;;;;5023917;28;20470;-49
2023/03/31 14:09:36;;;;;;;11.00;2.63;;;;;;;;;;5022865;28;20342;-52
2023/03/31 14:12:18;;;;;;;7.65;2.22;;;;;;;;;;5021754;28;20053;-51
2023/03/31 14:14:45;;;;;;;10.93;2.05;;;;;;;;;;5022794;28;20089;-52
2023/03/31 14:17:11;;;;;;;8.10;2.28;;;;;;;;;;5003823;28;20124;-52
2023/03/31 14:19:44;;;;;;;6.18;2.20;;;;;;;;;;5023107;28;20061;-51
2023/03/31 14:22:23;;;;;;;15.10;2.45;;;;;;;;;;5020822;28;20149;-53
2023/03/31 14:24:55;;;;;;;7.78;2.05;;;;;;;;;;5025475;28;20092;-54
2023/03/31 14:27:24;;;;;;;5.35;1.98;;;;;;;;;;5018909;28;20046;-54
2023/03/31 14:30:09;;;;;;;8.80;2.10;;;;;;;;;;5021910;28;20522;-51
2023/03/31 14:32:44;;;;;;;6.63;2.10;;;;;;;;;;5018699;28;20053;-53
2023/03/31 14:35:12;;;;;;;;;;;;;;;;;;5019613;28;20137;-53
2023/03/31 14:37:39;;;;;;;7.32;2.08;;;;;;;;;;5018509;28;44819;-52
2023/03/31 14:40:10;;;;;;;9.15;2.40;;;;;;;;;;5019849;28;20514;-52
2023/03/31 14:42:38;;;;;;;7.95;2.80;;;;;;;;;;5022431;28;20045;-52
2023/03/31 14:45:14;;;;;;;7.20;2.08;;;;;;;;;;5022593;28;20061;-51
2023/03/31 14:47:40;;;;;;;7.40;2.25;;;;;;;;;;5019802;28;20163;-53
2023/03/31 14:50:17;;;;;;;8.50;2.15;;;;;;;;;;5019718;28;20060;-52
2023/03/31 14:52:48;;;;;;;5.28;2.17;;;;;;;;;;5019708;28;20296;-54
2023/03/31 14:55:15;;;;;;;10.18;2.47;;;;;;;;;;5018883;28;20052;-51